createdAt,value
2018-06-22T00:01:47.409Z,67.80
2018-06-22T00:03:52.520Z,67.40
2018-06-22T00:05:59.313Z,67.30
2018-06-22T00:08:05.289Z,67.20
2018-06-22T00:10:13.203Z,67.50
2018-06-22T00:12:17.834Z,67.40
2018-06-22T00:14:21.786Z,67.70
2018-06-22T00:16:26.383Z,67.90
2018-06-22T00:18:32.375Z,68.10
2018-06-22T00:20:42.101Z,68.60
2018-06-22T00:22:47.499Z,68.40
2018-06-22T00:24:52.143Z,68.30
2018-06-22T00:27:05.974Z,68.60
2018-06-22T00:29:20.494Z,69.20
2018-06-22T00:31:28.102Z,68.80
2018-06-22T00:33:39.384Z,69.30
2018-06-22T00:35:44.995Z,69.40
2018-06-22T00:37:52.433Z,69.60
2018-06-22T00:39:57.448Z,69.80
2018-06-22T00:42:03.656Z,69.70
2018-06-22T00:44:07.901Z,69.40
2018-06-22T00:46:15.284Z,69.30
2018-06-22T00:48:19.709Z,69.60
2018-06-22T00:50:23.774Z,69.60
2018-06-22T00:52:30.197Z,69.60
2018-06-22T00:54:34.144Z,69.80
2018-06-22T00:56:39.320Z,70.10
2018-06-22T00:58:45.683Z,70.00
2018-06-22T01:00:51.635Z,70.40
2018-06-22T01:02:56.325Z,70.80
2018-06-22T01:05:00.849Z,70.60
2018-06-22T01:07:04.802Z,70.90
2018-06-22T01:09:15.390Z,70.40
2018-06-22T01:11:20.789Z,70.90
2018-06-22T01:13:24.661Z,71.00
2018-06-22T01:15:28.930Z,71.30
2018-06-22T01:19:44.091Z,71.80
2018-06-22T01:21:48.991Z,71.90
2018-06-22T01:23:53.568Z,72.30
2018-06-22T01:25:58.436Z,72.20
2018-06-22T01:28:05.412Z,72.30
2018-06-22T01:30:10.923Z,72.30
2018-06-22T01:32:17.915Z,72.40
2018-06-22T01:34:21.847Z,72.80
2018-06-22T01:36:26.390Z,72.00
2018-06-22T01:38:31.343Z,71.90
2018-06-22T01:40:36.603Z,71.90
2018-06-22T01:42:42.248Z,72.30
2018-06-22T01:44:46.229Z,72.70
2018-06-22T01:46:50.517Z,72.80
2018-06-22T01:48:54.694Z,73.20
2018-06-22T01:50:58.817Z,74.00
2018-06-22T01:53:06.922Z,74.00
2018-06-22T01:55:10.873Z,73.60
2018-06-22T01:57:14.880Z,73.70
2018-06-22T01:59:21.105Z,73.50
2018-06-22T02:01:25.031Z,73.40
2018-06-22T02:03:29.270Z,73.40
2018-06-22T02:05:34.369Z,73.40
2018-06-22T02:07:39.442Z,73.40
2018-06-22T02:09:43.285Z,73.60
2018-06-22T02:11:47.615Z,74.00
2018-06-22T02:13:51.483Z,73.70
2018-06-22T02:15:55.538Z,73.90
2018-06-22T02:17:59.701Z,73.70
2018-06-22T02:20:03.581Z,73.50
2018-06-22T02:22:07.449Z,73.50
2018-06-22T02:24:11.660Z,73.40
2018-06-22T02:26:15.613Z,73.90
2018-06-22T02:28:19.501Z,74.10
2018-06-22T02:30:23.363Z,74.00
2018-06-22T02:32:27.293Z,73.50
2018-06-22T02:36:36.425Z,73.80
2018-06-22T02:38:40.391Z,74.00
2018-06-22T02:40:44.306Z,74.10
2018-06-22T02:42:48.597Z,74.20
2018-06-22T02:44:53.509Z,74.10
2018-06-22T02:46:58.412Z,74.20
2018-06-22T02:49:03.299Z,74.70
2018-06-22T02:51:07.192Z,74.90
2018-06-22T02:53:11.385Z,74.80
2018-06-22T02:55:15.288Z,75.00
2018-06-22T02:59:23.166Z,75.20
2018-06-22T03:01:27.402Z,76.10
2018-06-22T03:03:31.330Z,75.50
2018-06-22T03:05:35.897Z,75.60
2018-06-22T03:07:41.538Z,75.90
2018-06-22T03:09:46.792Z,76.00
2018-06-22T03:11:50.759Z,76.50
2018-06-22T03:13:56.226Z,76.60
2018-06-22T03:16:00.745Z,76.30
2018-06-22T03:18:04.719Z,76.40
2018-06-22T03:20:08.971Z,76.60
2018-06-22T03:22:12.962Z,76.70
2018-06-22T03:24:17.296Z,76.80
2018-06-22T03:26:21.290Z,77.00
2018-06-22T03:28:25.339Z,77.00
2018-06-22T03:30:29.418Z,77.00
2018-06-22T03:32:33.751Z,77.00
2018-06-22T03:34:37.681Z,77.10
2018-06-22T03:38:47.016Z,77.10
2018-06-22T03:40:52.547Z,77.00
2018-06-22T03:42:56.576Z,77.20
2018-06-22T03:45:02.979Z,77.20
2018-06-22T03:47:07.246Z,77.70
2018-06-22T03:53:20.445Z,77.20
2018-06-22T03:55:24.896Z,77.00
2018-06-22T03:57:31.232Z,76.80
2018-06-22T03:59:35.893Z,77.10
2018-06-22T04:01:41.678Z,77.00
2018-06-22T04:03:47.186Z,76.60
2018-06-22T04:05:51.716Z,76.20
2018-06-22T04:07:55.657Z,76.00
2018-06-22T04:10:00.847Z,75.40
2018-06-22T04:12:05.132Z,75.00
2018-06-22T04:14:09.155Z,74.40
2018-06-22T04:16:13.751Z,74.70
2018-06-22T04:18:17.712Z,74.20
2018-06-22T04:20:22.722Z,73.90
2018-06-22T04:22:30.935Z,73.50
2018-06-22T04:24:34.891Z,72.70
2018-06-22T04:26:38.759Z,72.50
2018-06-22T04:30:48.430Z,71.80
2018-06-22T04:32:53.122Z,71.60
2018-06-22T04:34:58.847Z,71.60
2018-06-22T04:37:02.723Z,71.30
2018-06-22T04:39:08.265Z,71.10
2018-06-22T04:41:12.935Z,71.30
2018-06-22T04:43:17.791Z,71.20
2018-06-22T04:45:21.805Z,71.40
2018-06-22T04:47:27.265Z,71.60
2018-06-22T04:49:31.345Z,71.30
2018-06-22T04:51:35.361Z,71.30
2018-06-22T04:53:39.810Z,71.10
2018-06-22T04:55:45.495Z,70.60
2018-06-22T04:57:51.056Z,70.70
2018-06-22T04:59:55.432Z,70.20
2018-06-22T05:01:59.343Z,69.40
2018-06-22T05:04:03.291Z,69.00
2018-06-22T05:06:08.687Z,68.50
2018-06-22T05:08:15.749Z,68.10
2018-06-22T05:10:24.202Z,68.10
2018-06-22T05:12:29.263Z,67.80
2018-06-22T05:14:36.017Z,66.90
2018-06-22T05:16:44.649Z,67.20
2018-06-22T05:19:00.253Z,67.20
2018-06-22T05:21:08.321Z,66.80
2018-06-22T05:23:13.201Z,66.00
2018-06-22T05:25:39.666Z,65.80
2018-06-22T05:27:49.330Z,64.80
2018-06-22T05:29:57.694Z,64.20
2018-06-22T05:32:09.497Z,64.40
2018-06-22T05:34:16.999Z,63.50
2018-06-22T05:36:20.918Z,62.90
2018-06-22T05:38:26.342Z,62.60
2018-06-22T05:40:31.255Z,61.80
2018-06-22T05:42:35.375Z,61.80
2018-06-22T05:44:50.322Z,61.70
2018-06-22T05:46:54.374Z,61.50
2018-06-22T05:49:00.619Z,60.40
2018-06-22T05:51:05.544Z,59.50
2018-06-22T05:53:12.211Z,58.70
2018-06-22T05:55:16.225Z,58.70
2018-06-22T05:57:22.618Z,57.70
2018-06-22T06:01:25.892Z,56.80
2018-06-22T06:03:31.659Z,56.20
2018-06-22T06:05:39.762Z,56.30
2018-06-22T06:07:44.441Z,56.30
2018-06-22T06:09:53.239Z,57.70
2018-06-22T06:11:59.103Z,58.50
2018-06-22T06:14:06.476Z,58.20
2018-06-22T06:16:11.523Z,58.80
2018-06-22T06:18:17.134Z,59.30
2018-06-22T06:20:29.966Z,59.50
2018-06-22T06:22:37.002Z,60.30
2018-06-22T06:24:42.273Z,61.30
2018-06-22T06:26:48.424Z,61.60
2018-06-22T06:28:58.095Z,61.60
2018-06-22T06:31:02.518Z,61.70
2018-06-22T06:33:07.629Z,61.60
2018-06-22T06:38:46.004Z,61.70
2018-06-22T06:40:50.822Z,60.90
2018-06-22T06:42:54.767Z,60.40
2018-06-22T06:45:15.327Z,60.50
2018-06-22T06:47:22.091Z,61.00
2018-06-22T06:49:26.690Z,61.00
2018-06-22T06:51:45.745Z,61.00
2018-06-22T06:53:50.298Z,60.30
2018-06-22T06:55:54.433Z,59.10
2018-06-22T06:58:05.565Z,59.40
2018-06-22T07:02:24.027Z,60.50
2018-06-22T07:04:28.765Z,60.60
2018-06-22T07:06:36.907Z,60.50
2018-06-22T07:08:57.787Z,60.70
2018-06-22T07:11:03.501Z,60.80
2018-06-22T07:13:12.403Z,61.00
2018-06-22T07:15:40.073Z,60.70
2018-06-22T07:17:53.787Z,60.30
2018-06-22T07:19:58.595Z,59.80
2018-06-22T07:22:08.311Z,60.50
2018-06-22T07:24:12.686Z,60.30
2018-06-22T07:26:18.589Z,60.40
2018-06-22T07:28:24.475Z,60.60
2018-06-22T07:30:29.856Z,61.00
2018-06-22T07:32:34.886Z,61.30
2018-06-22T07:34:39.222Z,61.40
2018-06-22T07:36:52.054Z,61.00
2018-06-22T07:38:58.667Z,61.30
2018-06-22T07:41:03.541Z,61.40
2018-06-22T07:43:07.744Z,61.40
2018-06-22T07:45:15.230Z,61.80
2018-06-22T07:47:27.171Z,61.90
2018-06-22T07:49:34.307Z,61.30
2018-06-22T07:51:39.121Z,61.90
2018-06-22T07:53:48.247Z,62.20
2018-06-22T07:55:52.360Z,62.40
2018-06-22T07:57:58.219Z,62.10
2018-06-22T08:00:08.498Z,61.90
2018-06-22T08:02:14.247Z,62.20
2018-06-22T08:04:20.383Z,63.20
2018-06-22T08:06:26.043Z,63.60
2018-06-22T08:08:31.220Z,63.40
2018-06-22T08:10:37.532Z,63.20
2018-06-22T08:12:48.195Z,62.80
2018-06-22T08:14:54.939Z,63.30
2018-06-22T08:17:00.191Z,63.40
2018-06-22T08:19:04.799Z,63.30
2018-06-22T08:21:10.871Z,64.00
2018-06-22T08:23:16.210Z,62.70
2018-06-22T08:25:24.394Z,62.90
2018-06-22T08:27:28.311Z,62.70
2018-06-22T08:29:32.328Z,62.90
2018-06-22T08:31:41.702Z,62.90
2018-06-22T08:33:47.585Z,63.00
2018-06-22T08:35:52.956Z,62.90
2018-06-22T08:38:00.568Z,62.90
2018-06-22T08:40:04.590Z,62.70
2018-06-22T08:42:10.627Z,62.80
2018-06-22T08:44:16.543Z,62.90
2018-06-22T08:48:27.636Z,62.60
2018-06-22T08:52:38.456Z,61.60
2018-06-22T08:54:44.287Z,61.20
2018-06-22T08:56:57.609Z,61.00
2018-06-22T08:59:02.559Z,61.30
2018-06-22T09:01:07.762Z,60.80
2018-06-22T09:03:14.223Z,61.30
2018-06-22T09:05:19.000Z,60.80
2018-06-22T09:07:24.538Z,60.60
2018-06-22T09:09:30.180Z,61.20
2018-06-22T09:11:36.629Z,62.10
2018-06-22T09:13:42.152Z,61.40
2018-06-22T09:17:53.560Z,60.50
2018-06-22T09:19:58.247Z,59.70
2018-06-22T09:22:02.679Z,59.20
2018-06-22T09:24:07.532Z,58.50
2018-06-22T09:26:13.111Z,58.20
2018-06-22T09:28:17.352Z,58.10
2018-06-22T09:30:22.743Z,57.90
2018-06-22T09:32:27.036Z,58.40
2018-06-22T09:36:57.331Z,58.00
2018-06-22T09:39:01.447Z,58.20
2018-06-22T09:41:25.108Z,58.10
2018-06-22T09:43:30.563Z,58.40
2018-06-22T09:45:35.298Z,58.70
2018-06-22T09:47:51.314Z,58.50
2018-06-22T09:49:56.168Z,58.10
2018-06-22T09:52:03.249Z,58.10
2018-06-22T09:54:14.055Z,57.30
2018-06-22T09:56:19.379Z,57.90
2018-06-22T09:58:23.654Z,58.40
2018-06-22T10:05:21.268Z,59.80
2018-06-22T10:07:25.949Z,59.20
2018-06-22T10:09:44.417Z,58.90
2018-06-22T10:11:53.927Z,59.20
2018-06-22T10:14:01.779Z,59.40
2018-06-22T10:16:11.581Z,59.30
2018-06-22T10:18:17.207Z,59.30
2018-06-22T10:20:26.516Z,59.60
2018-06-22T10:22:45.396Z,60.00
2018-06-22T10:24:49.530Z,60.20
2018-06-22T10:26:54.215Z,59.50
2018-06-22T10:29:14.031Z,59.70
2018-06-22T10:31:18.588Z,59.90
2018-06-22T10:33:23.133Z,59.80
2018-06-22T10:35:37.529Z,59.30
2018-06-22T10:37:46.424Z,59.00
2018-06-22T10:39:57.276Z,58.60
2018-06-22T10:42:03.966Z,57.30
2018-06-22T10:44:14.413Z,56.90
2018-06-22T10:46:22.401Z,56.00
2018-06-22T10:48:27.702Z,55.90
2018-06-22T10:50:32.566Z,55.90
2018-06-22T10:52:36.468Z,56.20
2018-06-22T10:54:42.071Z,55.30
2018-06-22T10:56:47.733Z,56.30
2018-06-22T10:58:53.323Z,56.20
2018-06-22T11:00:59.322Z,56.60
2018-06-22T11:03:03.957Z,56.40
2018-06-22T11:05:09.328Z,56.20
2018-06-22T11:07:14.315Z,55.40
2018-06-22T11:09:20.655Z,55.80
2018-06-22T11:11:26.412Z,55.60
2018-06-22T11:13:39.388Z,55.60
2018-06-22T11:15:57.260Z,56.40
2018-06-22T11:22:23.278Z,55.70
2018-06-22T11:24:34.362Z,55.90
2018-06-22T11:26:43.284Z,55.20
2018-06-22T11:28:48.539Z,54.60
2018-06-22T11:35:15.530Z,51.90
2018-06-22T11:37:22.939Z,50.50
2018-06-22T11:39:29.273Z,49.60
2018-06-22T11:41:38.321Z,48.50
2018-06-22T11:43:52.185Z,48.50
2018-06-22T11:48:24.346Z,47.40
2018-06-22T11:50:33.508Z,46.90
2018-06-22T11:52:48.468Z,46.00
2018-06-22T11:54:55.431Z,45.90
2018-06-22T11:59:31.813Z,45.10
2018-06-22T12:01:41.147Z,45.00
2018-06-22T12:03:47.320Z,45.00
2018-06-22T12:05:55.187Z,45.00
2018-06-22T12:08:01.953Z,45.10
2018-06-22T12:10:11.668Z,44.80
2018-06-22T12:12:17.281Z,45.70
2018-06-22T12:14:22.039Z,46.20
2018-06-22T12:16:29.136Z,45.80
2018-06-22T12:20:40.855Z,46.00
2018-06-22T12:22:44.840Z,46.80
2018-06-22T12:24:49.483Z,47.10
2018-06-22T12:26:54.270Z,47.10
2018-06-22T12:28:59.683Z,46.50
2018-06-22T12:31:03.992Z,45.90
2018-06-22T12:33:08.526Z,45.20
2018-06-22T12:35:15.623Z,45.00
2018-06-22T12:37:20.738Z,45.10
2018-06-22T12:39:25.188Z,44.60
2018-06-22T12:41:30.932Z,44.50
2018-06-22T12:43:40.507Z,44.90
2018-06-22T12:45:55.968Z,45.20
2018-06-22T12:48:00.126Z,44.90
2018-06-22T12:50:05.557Z,45.10
2018-06-22T12:52:13.712Z,45.60
2018-06-22T12:54:17.778Z,44.80
2018-06-22T12:56:22.112Z,43.70
2018-06-22T12:58:29.137Z,43.40
2018-06-22T13:00:34.551Z,43.00
2018-06-22T13:02:46.345Z,43.50
2018-06-22T13:06:55.579Z,44.90
2018-06-22T13:09:00.840Z,44.00
2018-06-22T13:11:08.053Z,43.80
2018-06-22T13:13:14.840Z,43.40
2018-06-22T13:15:20.529Z,42.20
2018-06-22T13:17:25.376Z,42.10
2018-06-22T13:19:30.131Z,42.80
2018-06-22T13:21:51.306Z,44.70
2018-06-22T13:24:00.392Z,45.80
2018-06-22T13:26:04.856Z,46.60
2018-06-22T13:30:29.525Z,48.20
2018-06-22T13:32:36.513Z,48.80
2018-06-22T13:34:41.353Z,48.50
2018-06-22T13:36:48.421Z,48.50
2018-06-22T13:38:55.910Z,48.10
2018-06-22T13:41:00.808Z,47.80
2018-06-22T13:43:12.664Z,47.60
2018-06-22T13:47:23.472Z,45.80
2018-06-22T13:49:27.992Z,45.30
2018-06-22T13:51:33.567Z,44.70
2018-06-22T13:53:38.876Z,44.30
2018-06-22T13:55:45.842Z,43.80
2018-06-22T13:57:50.339Z,43.00
2018-06-22T13:59:54.316Z,42.20
2018-06-22T14:01:58.279Z,40.60
2018-06-22T14:04:07.972Z,40.30
2018-06-22T14:06:28.751Z,41.00
2018-06-22T14:08:36.363Z,41.70
2018-06-22T14:10:42.513Z,42.00
2018-06-22T14:12:48.003Z,41.50
2018-06-22T14:14:56.312Z,42.00
2018-06-22T14:17:02.571Z,41.30
2018-06-22T14:19:09.526Z,41.50
2018-06-22T14:21:24.350Z,42.50
2018-06-22T14:23:29.244Z,43.70
2018-06-22T14:25:37.585Z,43.50
2018-06-22T14:27:42.645Z,42.00
2018-06-22T14:29:46.707Z,40.90
2018-06-22T14:31:51.424Z,40.70
2018-06-22T14:33:55.502Z,40.40
2018-06-22T14:36:01.800Z,38.80
2018-06-22T14:38:06.224Z,38.50
2018-06-22T14:40:11.858Z,38.10
2018-06-22T14:42:19.192Z,37.30
2018-06-22T14:44:24.859Z,36.30
2018-06-22T14:46:31.089Z,36.10
2018-06-22T14:48:38.027Z,35.90
2018-06-22T14:50:43.801Z,36.00
2018-06-22T14:52:49.446Z,36.30
2018-06-22T14:54:59.503Z,37.30
2018-06-22T14:57:10.032Z,37.70
2018-06-22T14:59:19.796Z,38.00
2018-06-22T15:01:31.531Z,37.80
2018-06-22T15:03:42.000Z,38.00
2018-06-22T15:05:52.368Z,36.50
2018-06-22T15:08:00.603Z,36.10
2018-06-22T15:10:05.361Z,35.90
2018-06-22T15:12:10.185Z,35.70
2018-06-22T15:14:21.927Z,37.20
2018-06-22T15:16:27.535Z,38.30
2018-06-22T15:18:34.823Z,39.30
2018-06-22T15:20:42.310Z,40.40
2018-06-22T15:22:48.024Z,40.80
2018-06-22T15:24:54.459Z,42.10
2018-06-22T15:27:05.665Z,42.60
2018-06-22T15:29:12.831Z,43.30
2018-06-22T15:31:19.611Z,43.50
2018-06-22T15:33:34.598Z,42.10
2018-06-22T15:35:43.849Z,41.10
2018-06-22T15:37:53.076Z,39.60
2018-06-22T15:40:03.077Z,38.00
2018-06-22T15:42:12.182Z,37.50
2018-06-22T15:44:23.099Z,37.20
2018-06-22T15:46:35.285Z,38.50
2018-06-22T15:48:48.250Z,38.70
2018-06-22T15:50:57.471Z,38.30
2018-06-22T15:53:08.872Z,37.80
2018-06-22T15:55:15.788Z,37.70
2018-06-22T15:57:36.362Z,37.70
2018-06-22T15:59:57.177Z,37.30
2018-06-22T16:02:06.316Z,38.10
2018-06-22T16:04:12.044Z,38.40
2018-06-22T16:06:18.126Z,39.20
2018-06-22T16:08:23.712Z,39.20
2018-06-22T16:10:28.471Z,38.70
2018-06-22T16:12:36.558Z,38.60
2018-06-22T16:14:49.795Z,38.00
2018-06-22T16:19:06.896Z,37.30
2018-06-22T16:21:16.027Z,37.60
2018-06-22T16:23:25.099Z,36.20
2018-06-22T16:25:34.129Z,35.80
2018-06-22T16:27:41.989Z,36.50
2018-06-22T16:29:47.183Z,36.20
2018-06-22T16:31:52.527Z,36.80
2018-06-22T16:34:01.144Z,37.80
2018-06-22T16:36:05.327Z,39.20
2018-06-22T16:38:13.700Z,40.60
2018-06-22T16:40:18.532Z,40.80
2018-06-22T16:42:23.814Z,39.70
2018-06-22T16:44:29.395Z,39.80
2018-06-22T16:46:35.216Z,39.10
2018-06-22T16:48:39.498Z,39.20
2018-06-22T16:52:49.118Z,42.10
2018-06-22T16:54:53.799Z,42.70
2018-06-22T16:57:00.466Z,42.70
2018-06-22T16:59:05.585Z,42.70
2018-06-22T17:01:12.211Z,42.80
2018-06-22T17:03:17.978Z,43.80
2018-06-22T17:05:40.395Z,45.00
2018-06-22T17:07:52.207Z,45.20
2018-06-22T17:10:03.842Z,46.60
2018-06-22T17:12:14.266Z,47.50
2018-06-22T17:14:24.419Z,48.10
2018-06-22T17:18:53.740Z,49.00
2018-06-22T17:20:58.879Z,49.40
2018-06-22T17:23:04.394Z,49.50
2018-06-22T17:25:10.041Z,49.00
2018-06-22T17:27:16.815Z,48.10
2018-06-22T17:29:22.676Z,47.40
2018-06-22T17:31:26.635Z,47.70
2018-06-22T17:33:35.234Z,48.20
2018-06-22T17:35:42.433Z,49.50
2018-06-22T17:37:48.918Z,50.10
2018-06-22T17:39:55.527Z,50.50
2018-06-22T17:42:04.972Z,51.10
2018-06-22T17:44:12.412Z,50.50
2018-06-22T17:46:19.222Z,49.00
2018-06-22T17:50:31.808Z,46.40
2018-06-22T17:52:37.421Z,45.00
2018-06-22T17:54:44.446Z,44.20
2018-06-22T17:56:52.779Z,43.10
2018-06-22T17:59:03.655Z,43.40
2018-06-22T18:01:22.212Z,44.60
2018-06-22T18:03:37.302Z,45.00
2018-06-22T18:05:51.003Z,45.90
2018-06-22T18:07:55.420Z,46.70
2018-06-22T18:10:05.594Z,46.80
2018-06-22T18:12:19.422Z,46.90
2018-06-22T18:14:25.739Z,47.90
2018-06-22T18:16:30.394Z,48.60
2018-06-22T18:18:34.882Z,49.10
2018-06-22T18:20:39.339Z,49.70
2018-06-22T18:22:43.803Z,49.60
2018-06-22T18:24:50.554Z,49.80
2018-06-22T18:26:54.479Z,49.70
2018-06-22T18:28:58.380Z,50.00
2018-06-22T18:31:02.572Z,50.60
2018-06-22T18:33:09.491Z,51.40
2018-06-22T18:35:14.751Z,51.80
2018-06-22T18:37:19.888Z,52.10
2018-06-22T18:39:24.743Z,52.20
2018-06-22T18:41:30.530Z,52.50
2018-06-22T18:43:40.509Z,53.20
2018-06-22T18:45:45.387Z,54.00
2018-06-22T18:47:50.432Z,54.50
2018-06-22T18:49:56.443Z,55.00
2018-06-22T18:54:17.394Z,55.80
2018-06-22T18:56:28.220Z,56.10
2018-06-22T18:58:38.339Z,56.40
2018-06-22T19:00:48.477Z,56.60
2018-06-22T19:02:57.931Z,56.70
2018-06-22T19:05:04.069Z,56.60
2018-06-22T19:07:10.323Z,56.40
2018-06-22T19:09:17.501Z,56.70
2018-06-22T19:11:31.360Z,56.80
2018-06-22T19:13:35.423Z,56.40
2018-06-22T19:15:44.451Z,56.70
2018-06-22T19:17:53.356Z,56.90
2018-06-22T19:19:59.191Z,57.00
2018-06-22T19:22:06.365Z,58.00
2018-06-22T19:24:11.908Z,57.80
2018-06-22T19:26:17.211Z,58.10
2018-06-22T19:28:57.157Z,58.20
2018-06-22T19:31:03.511Z,58.20
2018-06-22T19:33:07.899Z,58.40
2018-06-22T19:35:16.499Z,58.60
2018-06-22T19:37:24.631Z,58.60
2018-06-22T19:39:29.159Z,58.60
2018-06-22T19:41:33.790Z,58.80
2018-06-22T19:43:43.001Z,58.70
2018-06-22T19:45:58.336Z,58.70
2018-06-22T19:48:07.882Z,58.90
2018-06-22T19:50:17.310Z,59.00
2018-06-22T19:52:27.009Z,58.90
2018-06-22T19:54:32.251Z,59.30
2018-06-22T19:56:37.424Z,59.60
2018-06-22T19:58:43.392Z,59.30
2018-06-22T20:00:54.404Z,59.60
2018-06-22T20:03:01.386Z,59.50
2018-06-22T20:05:05.593Z,59.30
2018-06-22T20:07:12.239Z,59.50
2018-06-22T20:09:16.612Z,59.70
2018-06-22T20:11:23.000Z,60.50
2018-06-22T20:13:28.575Z,60.80
2018-06-22T20:15:34.319Z,61.10
2018-06-22T20:17:41.503Z,61.20
2018-06-22T20:19:52.980Z,61.10
2018-06-22T20:21:58.282Z,61.30
2018-06-22T20:24:03.749Z,61.70
2018-06-22T20:26:13.291Z,61.60
2018-06-22T20:28:20.859Z,61.70
2018-06-22T20:30:29.639Z,62.00
2018-06-22T20:32:34.311Z,62.00
2018-06-22T20:34:44.663Z,62.40
2018-06-22T20:36:54.672Z,62.80
2018-06-22T20:39:06.281Z,63.40
2018-06-22T20:41:17.769Z,64.10
2018-06-22T20:43:33.036Z,64.60
2018-06-22T20:45:44.315Z,64.60
2018-06-22T20:47:54.335Z,64.90
2018-06-22T20:51:02.805Z,64.80
2018-06-22T20:53:07.840Z,64.60
2018-06-22T20:55:12.895Z,65.00
2018-06-22T20:57:19.092Z,65.00
2018-06-22T20:59:26.143Z,65.70
2018-06-22T21:01:35.211Z,66.50
2018-06-22T21:03:40.110Z,67.00
2018-06-22T21:05:47.342Z,67.40
2018-06-22T21:07:51.595Z,67.40
2018-06-22T21:09:55.557Z,67.40
2018-06-22T21:12:00.520Z,67.80
2018-06-22T21:14:06.194Z,67.80
2018-06-22T21:16:10.190Z,68.10
2018-06-22T21:18:14.779Z,67.90
2018-06-22T21:20:20.496Z,68.00
2018-06-22T21:22:27.002Z,67.80
2018-06-22T21:24:33.759Z,68.00
2018-06-22T21:26:42.879Z,68.50
2018-06-22T21:28:54.747Z,68.70
2018-06-22T21:31:04.299Z,68.80
2018-06-22T21:33:14.448Z,68.20
2018-06-22T21:35:25.345Z,68.50
2018-06-22T21:37:38.752Z,69.00
2018-06-22T21:39:44.367Z,68.80
2018-06-22T21:41:53.498Z,68.80
2018-06-22T21:44:09.874Z,68.90
2018-06-22T21:46:17.088Z,68.90
2018-06-22T21:48:23.003Z,69.00
2018-06-22T21:50:30.794Z,69.00
2018-06-22T21:52:39.019Z,69.20
2018-06-22T21:56:51.407Z,69.00
2018-06-22T21:58:59.217Z,69.00
2018-06-22T22:01:11.011Z,69.20
2018-06-22T22:03:15.748Z,70.10
2018-06-22T22:05:19.795Z,69.10
2018-06-22T22:07:25.404Z,69.60
2018-06-22T22:09:37.911Z,70.00
2018-06-22T22:11:47.137Z,70.20
2018-06-22T22:13:51.045Z,70.30
2018-06-22T22:15:59.160Z,70.70
2018-06-22T22:18:04.291Z,70.90
2018-06-22T22:20:08.444Z,70.60
2018-06-22T22:22:12.834Z,70.50
2018-06-22T22:24:18.429Z,70.70
2018-06-22T22:26:22.529Z,70.60
2018-06-22T22:28:27.731Z,71.10
2018-06-22T22:30:32.355Z,71.20
2018-06-22T22:32:36.283Z,71.00
2018-06-22T22:34:42.998Z,71.10
2018-06-22T22:36:48.021Z,71.10
2018-06-22T22:38:52.006Z,71.40
2018-06-22T22:40:56.957Z,71.10
2018-06-22T22:43:01.067Z,71.20
2018-06-22T22:45:08.009Z,71.30
2018-06-22T22:47:12.635Z,71.00
2018-06-22T22:49:18.267Z,71.30
2018-06-22T22:51:22.392Z,71.10
2018-06-22T22:53:27.187Z,70.80
2018-06-22T22:55:32.402Z,70.80
2018-06-22T22:57:36.318Z,71.20
2018-06-22T22:59:40.907Z,71.50
2018-06-22T23:01:46.407Z,71.30
2018-06-22T23:03:53.402Z,71.20
2018-06-22T23:05:59.093Z,71.00
2018-06-22T23:08:03.686Z,71.50
2018-06-22T23:10:09.667Z,71.20
2018-06-22T23:12:18.010Z,71.30
2018-06-22T23:14:22.514Z,71.30
2018-06-22T23:16:28.407Z,71.00
2018-06-22T23:18:32.582Z,70.50
2018-06-22T23:20:37.364Z,70.60
2018-06-22T23:22:52.295Z,71.00
2018-06-22T23:24:58.530Z,71.20
2018-06-22T23:27:02.504Z,70.90
2018-06-22T23:29:06.456Z,71.20
2018-06-22T23:31:11.933Z,70.70
2018-06-22T23:33:16.786Z,71.00
2018-06-22T23:35:25.568Z,71.40
2018-06-22T23:37:29.542Z,71.30
2018-06-22T23:39:35.398Z,70.40
2018-06-22T23:41:39.474Z,69.50
2018-06-22T23:43:45.222Z,70.50
2018-06-22T23:45:52.118Z,70.00
2018-06-22T23:47:57.588Z,69.60
2018-06-22T23:50:02.733Z,69.30
2018-06-22T23:52:06.624Z,70.30
2018-06-22T23:54:11.241Z,70.40
2018-06-22T23:56:20.368Z,69.70
2018-06-22T23:58:24.955Z,68.90
